Rock Creek, California
Current Conditions -  °F | °C
As of 4:47 PM on Wednesday 22 Oct 2014 (Local Time) from KCIC Reporting Station
Broken Clouds Broken Clouds  
Wind Chill: 72°   Ceiling: 12000
Heat Index: 72°   Visibility: 25mi
Dew Point: 41°   Wind: 7mph
Humidity: 33%   Direction: 170°S
Pressure: 29.99"   Gusts: NA
Location:  39.9071°N, 121.345°W
Report Text: KCIC 222347Z 17006KT 25SM FEW070 BKN120 BKN200 22/05 A2999
Loading
Personal Weather Stations






























Interactive Weather Map
Tropical Storm Tracking
New forecast layout! Learn more

10-Day Weather Forecast

Advertisements
Track Severe Weather on mobile